Time,TemperatureF,DewpointF,PressureIn,WindDirection,WindDirectionDegrees,WindSpeedMPH,WindSpeedGustMPH,Humidity,HourlyPrecipIn,Conditions,Clouds,dailyrainin,SoftwareType,DateUTC
2013-07-10 00:00:00,80.6,76.4,29.93,South,169,1.0,1.0,87,0.00,,,0.00,Wunderground v.1.15,2013-07-10 05:00:00,
2013-07-10 00:10:00,80.6,76.7,29.92,South,170,1.0,1.0,88,0.00,,,0.00,Wunderground v.1.15,2013-07-10 05:10:00,
2013-07-10 00:20:00,80.5,76.6,29.92,South,175,0.0,1.0,88,0.00,,,0.00,Wunderground v.1.15,2013-07-10 05:20:00,
2013-07-10 00:30:00,80.5,76.6,29.92,South,175,0.0,0.0,88,0.00,,,0.00,Wunderground v.1.15,2013-07-10 05:30:00,
2013-07-10 00:35:00,80.4,76.5,29.92,South,175,0.0,0.0,88,0.00,,,0.00,Wunderground v.1.15,2013-07-10 05:35:00,
2013-07-10 00:45:00,80.2,76.3,29.92,SSW,194,0.0,0.0,88,0.00,,,0.00,Wunderground v.1.15,2013-07-10 05:45:00,
2013-07-10 00:50:00,80.2,76.3,29.92,SSW,194,0.0,0.0,88,0.00,,,0.00,Wunderground v.1.15,2013-07-10 05:50:00,
2013-07-10 01:00:00,80.1,76.6,29.91,SSW,194,1.0,1.0,89,0.00,,,0.00,Wunderground v.1.15,2013-07-10 06:00:00,
2013-07-10 01:10:00,80.0,76.5,29.91,SSW,194,0.0,0.0,89,0.00,,,0.00,Wunderground v.1.15,2013-07-10 06:10:00,
2013-07-10 01:20:00,80.0,76.5,29.91,SSW,194,0.0,0.0,89,0.00,,,0.00,Wunderground v.1.15,2013-07-10 06:20:00,
2013-07-10 01:30:00,79.9,76.4,29.91,SSW,194,0.0,0.0,89,0.00,,,0.00,Wunderground v.1.15,2013-07-10 06:30:00,
2013-07-10 01:35:00,79.8,76.3,29.91,SSW,194,0.0,0.0,89,0.00,,,0.00,Wunderground v.1.15,2013-07-10 06:35:00,
2013-07-10 01:45:00,79.7,76.2,29.91,SSW,194,0.0,0.0,89,0.00,,,0.00,Wunderground v.1.15,2013-07-10 06:45:00,
2013-07-10 01:55:00,79.6,76.1,29.91,SSW,194,0.0,0.0,89,0.00,,,0.00,Wunderground v.1.15,2013-07-10 06:55:00,
2013-07-10 02:00:00,79.5,76.0,29.91,SSW,194,0.0,0.0,89,0.00,,,0.00,Wunderground v.1.15,2013-07-10 07:00:00,
2013-07-10 02:10:00,79.4,76.2,29.91,SSW,194,0.0,0.0,90,0.00,,,0.00,Wunderground v.1.15,2013-07-10 07:10:00,
2013-07-10 02:15:00,79.3,76.1,29.91,SSW,194,0.0,0.0,90,0.00,,,0.00,Wunderground v.1.15,2013-07-10 07:15:00,
2013-07-10 02:25:00,79.2,76.0,29.91,SSW,194,0.0,0.0,90,0.00,,,0.00,Wunderground v.1.15,2013-07-10 07:25:00,
2013-07-10 02:30:00,79.1,75.9,29.91,SSW,194,0.0,0.0,90,0.00,,,0.00,Wunderground v.1.15,2013-07-10 07:30:00,
2013-07-10 02:40:00,78.9,75.7,29.91,SSW,194,0.0,0.0,90,0.00,,,0.00,Wunderground v.1.15,2013-07-10 07:40:00,
2013-07-10 02:45:00,78.9,75.7,29.91,SSW,194,0.0,0.0,90,0.00,,,0.00,Wunderground v.1.15,2013-07-10 07:45:00,
2013-07-10 02:55:00,78.7,75.8,29.91,SSW,194,0.0,0.0,91,0.00,,,0.00,Wunderground v.1.15,2013-07-10 07:55:00,
2013-07-10 03:00:00,78.7,75.8,29.91,SSW,194,0.0,0.0,91,0.00,,,0.00,Wunderground v.1.15,2013-07-10 08:00:00,
2013-07-10 03:10:00,78.7,75.8,29.91,SSW,194,0.0,0.0,91,0.00,,,0.00,Wunderground v.1.15,2013-07-10 08:10:00,
2013-07-10 03:15:00,78.7,75.8,29.91,SSW,194,0.0,0.0,91,0.00,,,0.00,Wunderground v.1.15,2013-07-10 08:15:00,
2013-07-10 03:25:00,78.5,75.7,29.91,SSW,195,0.0,0.0,91,0.00,,,0.00,Wunderground v.1.15,2013-07-10 08:25:00,
2013-07-10 03:35:00,78.3,75.5,29.91,SSW,195,0.0,0.0,91,0.00,,,0.00,Wunderground v.1.15,2013-07-10 08:35:00,
2013-07-10 03:45:00,78.2,75.7,29.91,SSW,195,0.0,0.0,92,0.00,,,0.00,Wunderground v.1.15,2013-07-10 08:45:00,
2013-07-10 03:55:00,77.9,75.4,29.91,SSW,195,0.0,0.0,92,0.00,,,0.00,Wunderground v.1.15,2013-07-10 08:55:00,
2013-07-10 04:00:00,77.9,75.4,29.91,SSW,195,0.0,0.0,92,0.00,,,0.00,Wunderground v.1.15,2013-07-10 09:00:00,
2013-07-10 04:10:00,77.7,75.2,29.90,SSW,195,0.0,0.0,92,0.00,,,0.00,Wunderground v.1.15,2013-07-10 09:10:00,
2013-07-10 04:15:00,77.7,75.2,29.90,SSW,195,0.0,0.0,92,0.00,,,0.00,Wunderground v.1.15,2013-07-10 09:15:00,
2013-07-10 04:25:00,77.6,75.1,29.90,SSW,195,0.0,0.0,92,0.00,,,0.00,Wunderground v.1.15,2013-07-10 09:25:00,
2013-07-10 04:30:00,77.5,75.0,29.90,SSW,195,0.0,0.0,92,0.00,,,0.00,Wunderground v.1.15,2013-07-10 09:30:00,
2013-07-10 04:35:00,77.4,74.9,29.90,SSW,195,0.0,0.0,92,0.00,,,0.00,Wunderground v.1.15,2013-07-10 09:35:00,
2013-07-10 04:45:00,77.2,75.0,29.90,SSW,195,0.0,0.0,93,0.00,,,0.00,Wunderground v.1.15,2013-07-10 09:45:00,
2013-07-10 04:55:00,77.1,74.9,29.90,SSW,195,0.0,0.0,93,0.00,,,0.00,Wunderground v.1.15,2013-07-10 09:55:00,
2013-07-10 05:00:00,77.1,74.9,29.90,South,186,0.0,2.0,93,0.00,,,0.00,Wunderground v.1.15,2013-07-10 10:00:00,
2013-07-10 05:10:00,77.1,74.9,29.89,South,186,0.0,0.0,93,0.00,,,0.00,Wunderground v.1.15,2013-07-10 10:10:00,
2013-07-10 05:15:00,77.1,74.9,29.89,South,186,0.0,0.0,93,0.00,,,0.00,Wunderground v.1.15,2013-07-10 10:15:00,
2013-07-10 05:25:00,77.1,74.9,29.89,South,182,1.0,3.0,93,0.00,,,0.00,Wunderground v.1.15,2013-07-10 10:25:00,
2013-07-10 05:30:00,77.2,75.0,29.90,South,188,1.0,3.0,93,0.00,,,0.00,Wunderground v.1.15,2013-07-10 10:30:00,
2013-07-10 05:40:00,77.0,74.8,29.90,South,189,1.0,1.0,93,0.00,,,0.00,Wunderground v.1.15,2013-07-10 10:40:00,
2013-07-10 05:45:00,77.0,74.8,29.90,South,189,0.0,1.0,93,0.00,,,0.00,Wunderground v.1.15,2013-07-10 10:45:00,
2013-07-10 05:55:00,76.9,74.7,29.90,WSW,241,0.0,0.0,93,0.00,,,0.00,Wunderground v.1.15,2013-07-10 10:55:00,
2013-07-10 06:00:00,76.9,74.7,29.89,North,9,0.0,0.0,93,0.00,,,0.00,Wunderground v.1.15,2013-07-10 11:00:00,
2013-07-10 06:10:00,76.9,74.7,29.89,SSW,198,0.0,2.0,93,0.00,,,0.00,Wunderground v.1.15,2013-07-10 11:10:00,
2013-07-10 06:15:00,76.9,74.7,29.89,SSW,195,1.0,3.0,93,0.00,,,0.00,Wunderground v.1.15,2013-07-10 11:15:00,
2013-07-10 06:25:00,77.0,74.8,29.89,South,171,4.0,4.0,93,0.00,,,0.00,Wunderground v.1.15,2013-07-10 11:25:00,
2013-07-10 06:35:00,77.2,75.0,29.89,South,171,3.0,4.0,93,0.00,,,0.00,Wunderground v.1.15,2013-07-10 11:35:00,
2013-07-10 06:40:00,77.4,75.2,29.89,South,178,2.0,3.0,93,0.00,,,0.00,Wunderground v.1.15,2013-07-10 11:40:00,
2013-07-10 06:50:00,77.7,75.2,29.89,South,178,3.0,3.0,92,0.00,,,0.00,Wunderground v.1.15,2013-07-10 11:50:00,
2013-07-10 06:55:00,77.8,75.3,29.88,South,176,3.0,3.0,92,0.00,,,0.00,Wunderground v.1.15,2013-07-10 11:55:00,
2013-07-10 07:00:00,78.0,75.5,29.89,South,184,3.0,3.0,92,0.00,,,0.00,Wunderground v.1.15,2013-07-10 12:00:00,
2013-07-10 07:10:00,78.5,76.0,29.89,SSE,164,2.0,5.0,92,0.00,,,0.00,Wunderground v.1.15,2013-07-10 12:10:00,
2013-07-10 07:15:00,78.7,75.8,29.89,South,173,3.0,5.0,91,0.00,,,0.00,Wunderground v.1.15,2013-07-10 12:15:00,
2013-07-10 07:25:00,79.3,76.4,29.90,SSW,207,4.0,5.0,91,0.00,,,0.00,Wunderground v.1.15,2013-07-10 12:25:00,
2013-07-10 07:35:00,80.0,76.8,29.90,South,171,6.0,6.0,90,0.00,,,0.00,Wunderground v.1.15,2013-07-10 12:35:00,
2013-07-10 07:40:00,80.3,76.8,29.90,SW,222,7.0,10.0,89,0.00,,,0.00,Wunderground v.1.15,2013-07-10 12:40:00,
2013-07-10 07:50:00,80.3,76.4,29.90,South,185,7.0,7.0,88,0.00,,,0.00,Wunderground v.1.15,2013-07-10 12:50:00,
2013-07-10 07:55:00,80.3,76.4,29.90,SSW,196,6.0,7.0,88,0.00,,,0.00,Wunderground v.1.15,2013-07-10 12:55:00,
2013-07-10 08:00:00,80.3,76.8,29.90,SSW,197,5.0,5.0,89,0.00,,,0.00,Wunderground v.1.15,2013-07-10 13:00:00,
2013-07-10 08:10:00,80.7,77.2,29.90,SSE,165,5.0,6.0,89,0.00,,,0.00,Wunderground v.1.15,2013-07-10 13:10:00,
2013-07-10 08:20:00,80.9,77.0,29.90,SSE,168,5.0,5.0,88,0.00,,,0.00,Wunderground v.1.15,2013-07-10 13:20:00,
2013-07-10 08:30:00,81.1,77.2,29.90,SSW,192,6.0,6.0,88,0.00,,,0.00,Wunderground v.1.15,2013-07-10 13:30:00,
2013-07-10 08:35:00,81.3,77.4,29.89,SSW,207,6.0,6.0,88,0.00,,,0.00,Wunderground v.1.15,2013-07-10 13:35:00,
2013-07-10 08:45:00,81.8,77.5,29.90,South,183,7.0,10.0,87,0.00,,,0.00,Wunderground v.1.15,2013-07-10 13:45:00,
2013-07-10 08:50:00,81.9,77.6,29.89,SW,218,8.0,8.0,87,0.00,,,0.00,Wunderground v.1.15,2013-07-10 13:50:00,
2013-07-10 09:00:00,82.7,78.1,29.90,SW,221,7.0,7.0,86,0.00,,,0.00,Wunderground v.1.15,2013-07-10 14:00:00,
2013-07-10 09:10:00,82.7,77.4,29.89,SSW,192,7.0,9.0,84,0.00,,,0.00,Wunderground v.1.15,2013-07-10 14:10:00,
2013-07-10 09:20:00,82.8,78.5,29.89,South,182,8.0,8.0,87,0.00,,,0.00,Wunderground v.1.15,2013-07-10 14:20:00,
2013-07-10 09:30:00,82.7,78.4,29.88,SSW,207,5.0,6.0,87,0.00,,,0.00,Wunderground v.1.15,2013-07-10 14:30:00,
2013-07-10 09:40:00,83.3,78.7,29.88,SSW,202,6.0,9.0,86,0.00,,,0.00,Wunderground v.1.15,2013-07-10 14:40:00,
2013-07-10 09:50:00,82.5,77.5,29.87,SW,214,6.0,6.0,85,0.00,,,0.00,Wunderground v.1.15,2013-07-10 14:50:00,
2013-07-10 10:00:00,82.4,77.8,29.87,SSW,211,5.0,6.0,86,0.00,,,0.00,Wunderground v.1.15,2013-07-10 15:00:00,
2013-07-10 10:10:00,83.2,78.6,29.87,SSW,196,5.0,9.0,86,0.00,,,0.00,Wunderground v.1.15,2013-07-10 15:10:00,
2013-07-10 10:15:00,83.7,78.7,29.86,South,184,6.0,13.0,85,0.00,,,0.00,Wunderground v.1.15,2013-07-10 15:15:00,
2013-07-10 10:25:00,83.4,78.1,29.85,South,172,11.0,11.0,84,0.00,,,0.00,Wunderground v.1.15,2013-07-10 15:25:00,
2013-07-10 10:30:00,83.5,78.5,29.86,South,179,10.0,12.0,85,0.00,,,0.00,Wunderground v.1.15,2013-07-10 15:30:00,
2013-07-10 10:40:00,84.1,79.1,29.86,SSE,167,9.0,9.0,85,0.00,,,0.00,Wunderground v.1.15,2013-07-10 15:40:00,
2013-07-10 10:45:00,84.4,79.4,29.86,SW,215,9.0,9.0,85,0.00,,,0.00,Wunderground v.1.15,2013-07-10 15:45:00,
2013-07-10 10:55:00,85.5,79.7,29.87,SW,233,9.0,9.0,83,0.00,,,0.00,Wunderground v.1.15,2013-07-10 15:55:00,
2013-07-10 11:00:00,85.7,79.6,29.87,SSW,195,6.0,6.0,82,0.00,,,0.00,Wunderground v.1.15,2013-07-10 16:00:00,
2013-07-10 11:10:00,85.6,79.5,29.88,SSW,211,7.0,8.0,82,0.00,,,0.00,Wunderground v.1.15,2013-07-10 16:10:00,
2013-07-10 11:15:00,86.4,79.5,29.89,SW,221,6.0,11.0,80,0.00,,,0.00,Wunderground v.1.15,2013-07-10 16:15:00,
2013-07-10 11:25:00,86.4,79.9,29.89,SSW,201,8.0,8.0,81,0.00,,,0.00,Wunderground v.1.15,2013-07-10 16:25:00,
2013-07-10 11:35:00,86.2,80.1,29.90,SSE,165,6.0,11.0,82,0.00,,,0.00,Wunderground v.1.15,2013-07-10 16:35:00,
2013-07-10 11:40:00,86.3,80.2,29.90,SW,219,7.0,7.0,82,0.00,,,0.00,Wunderground v.1.15,2013-07-10 16:40:00,
2013-07-10 11:50:00,86.5,79.6,29.90,South,186,7.0,10.0,80,0.00,,,0.00,Wunderground v.1.15,2013-07-10 16:50:00,
2013-07-10 11:55:00,86.9,80.4,29.90,SW,218,7.0,10.0,81,0.00,,,0.00,Wunderground v.1.15,2013-07-10 16:55:00,
2013-07-10 12:00:00,86.8,80.3,29.90,South,178,6.0,9.0,81,0.00,,,0.00,Wunderground v.1.15,2013-07-10 17:00:00,
2013-07-10 12:10:00,86.8,79.9,29.90,South,187,3.0,3.0,80,0.00,,,0.00,Wunderground v.1.15,2013-07-10 17:10:00,
2013-07-10 12:15:00,86.6,79.3,29.90,SSE,168,2.0,3.0,79,0.00,,,0.00,Wunderground v.1.15,2013-07-10 17:15:00,
2013-07-10 12:25:00,86.3,79.4,29.91,North,5,1.0,2.0,80,0.00,,,0.00,Wunderground v.1.15,2013-07-10 17:25:00,
2013-07-10 12:35:00,86.2,80.1,29.91,NW,309,2.0,5.0,82,0.00,,,0.00,Wunderground v.1.15,2013-07-10 17:35:00,
2013-07-10 12:40:00,86.1,79.6,29.91,WNW,293,3.0,4.0,81,0.00,,,0.00,Wunderground v.1.15,2013-07-10 17:40:00,
2013-07-10 12:50:00,85.5,79.0,29.91,WNW,284,3.0,6.0,81,0.00,,,0.00,Wunderground v.1.15,2013-07-10 17:50:00,
2013-07-10 13:00:00,84.8,79.1,29.90,WNW,300,3.0,3.0,83,0.00,,,0.00,Wunderground v.1.15,2013-07-10 18:00:00,
2013-07-10 13:10:00,85.1,80.1,29.89,WSW,248,3.0,7.0,85,0.00,,,0.00,Wunderground v.1.15,2013-07-10 18:10:00,
2013-07-10 13:20:00,81.0,74.2,29.90,NW,307,6.0,6.0,80,0.65,,,0.06,Wunderground v.1.15,2013-07-10 18:20:00,
2013-07-10 13:30:00,75.1,72.0,29.89,NNW,336,5.0,5.0,90,0.87,,,0.17,Wunderground v.1.15,2013-07-10 18:30:00,
2013-07-10 13:35:00,74.5,72.0,29.88,NW,325,4.0,6.0,92,0.50,,,0.22,Wunderground v.1.15,2013-07-10 18:35:00,
2013-07-10 13:45:00,74.6,72.8,29.88,NW,320,2.0,4.0,94,0.43,,,0.29,Wunderground v.1.15,2013-07-10 18:45:00,
2013-07-10 13:55:00,75.7,74.2,29.87,NW,319,2.0,5.0,95,0.23,,,0.33,Wunderground v.1.15,2013-07-10 18:55:00,
2013-07-10 14:00:00,76.5,75.0,29.86,NW,313,2.0,6.0,95,0.08,,,0.33,Wunderground v.1.15,2013-07-10 19:00:00,
2013-07-10 14:10:00,78.3,76.7,29.86,WNW,299,2.0,2.0,95,0.00,,,0.33,Wunderground v.1.15,2013-07-10 19:10:00,
2013-07-10 14:20:00,79.2,76.7,29.88,NW,311,1.0,1.0,92,0.00,,,0.33,Wunderground v.1.15,2013-07-10 19:20:00,
2013-07-10 14:30:00,79.1,75.9,29.87,NNE,22,1.0,1.0,90,0.00,,,0.33,Wunderground v.1.15,2013-07-10 19:30:00,
2013-07-10 14:35:00,79.6,76.4,29.86,North,360,1.0,1.0,90,0.00,,,0.33,Wunderground v.1.15,2013-07-10 19:35:00,
2013-07-10 14:45:00,80.2,76.3,29.85,North,355,0.0,1.0,88,0.00,,,0.33,Wunderground v.1.15,2013-07-10 19:45:00,
2013-07-10 14:55:00,80.3,75.7,29.85,NNW,341,0.0,0.0,86,0.00,,,0.33,Wunderground v.1.15,2013-07-10 19:55:00,
2013-07-10 15:00:00,80.2,75.6,29.85,NW,323,1.0,1.0,86,0.00,,,0.33,Wunderground v.1.15,2013-07-10 20:00:00,
2013-07-10 15:10:00,80.2,75.6,29.83,NW,315,0.0,0.0,86,0.00,,,0.33,Wunderground v.1.15,2013-07-10 20:10:00,
2013-07-10 15:20:00,79.8,75.9,29.82,ESE,106,0.0,0.0,88,0.00,,,0.33,Wunderground v.1.15,2013-07-10 20:20:00,
2013-07-10 15:30:00,79.4,74.8,29.82,ESE,109,0.0,0.0,86,0.00,,,0.33,Wunderground v.1.15,2013-07-10 20:30:00,
2013-07-10 15:40:00,79.6,75.0,29.81,ESE,108,0.0,0.0,86,0.00,,,0.33,Wunderground v.1.15,2013-07-10 20:40:00,
2013-07-10 15:45:00,79.6,75.4,29.81,ESE,109,0.0,0.0,87,0.00,,,0.33,Wunderground v.1.15,2013-07-10 20:45:00,
2013-07-10 15:55:00,79.9,75.3,29.80,ESE,107,1.0,1.0,86,0.00,,,0.33,Wunderground v.1.15,2013-07-10 20:55:00,
2013-07-10 16:00:00,80.3,75.4,29.80,SE,128,1.0,1.0,85,0.00,,,0.33,Wunderground v.1.15,2013-07-10 21:00:00,
2013-07-10 16:10:00,81.1,75.1,29.81,ESE,104,2.0,2.0,82,0.00,,,0.33,Wunderground v.1.15,2013-07-10 21:10:00,
2013-07-10 16:20:00,81.2,75.2,29.81,South,184,0.0,3.0,82,0.00,,,0.33,Wunderground v.1.15,2013-07-10 21:20:00,
2013-07-10 16:30:00,80.8,74.8,29.82,South,191,2.0,2.0,82,0.00,,,0.33,Wunderground v.1.15,2013-07-10 21:30:00,
2013-07-10 16:40:00,81.0,75.7,29.82,South,184,1.0,1.0,84,0.00,,,0.33,Wunderground v.1.15,2013-07-10 21:40:00,
2013-07-10 16:45:00,80.9,75.6,29.82,South,178,1.0,1.0,84,0.00,,,0.33,Wunderground v.1.15,2013-07-10 21:45:00,
2013-07-10 16:55:00,80.4,75.1,29.82,South,175,3.0,3.0,84,0.00,,,0.33,Wunderground v.1.15,2013-07-10 21:55:00,
2013-07-10 17:00:00,80.4,74.8,29.83,South,188,3.0,3.0,83,0.00,,,0.33,Wunderground v.1.15,2013-07-10 22:00:00,
2013-07-10 17:10:00,79.9,74.6,29.83,South,189,3.0,4.0,84,0.00,,,0.33,Wunderground v.1.15,2013-07-10 22:10:00,
2013-07-10 17:15:00,79.8,74.5,29.83,South,189,3.0,4.0,84,0.00,,,0.33,Wunderground v.1.15,2013-07-10 22:15:00,
2013-07-10 17:25:00,80.2,74.9,29.83,South,190,1.0,3.0,84,0.00,,,0.33,Wunderground v.1.15,2013-07-10 22:25:00,
2013-07-10 17:30:00,80.8,75.2,29.83,South,190,1.0,2.0,83,0.00,,,0.33,Wunderground v.1.15,2013-07-10 22:30:00,
2013-07-10 17:40:00,81.5,75.5,29.83,South,183,2.0,2.0,82,0.00,,,0.33,Wunderground v.1.15,2013-07-10 22:40:00,
2013-07-10 17:50:00,82.0,76.3,29.83,SE,125,0.0,1.0,83,0.00,,,0.33,Wunderground v.1.15,2013-07-10 22:50:00,
2013-07-10 18:00:00,81.1,76.2,29.83,SE,128,1.0,2.0,85,0.00,,,0.33,Wunderground v.1.15,2013-07-10 23:00:00,
2013-07-10 18:10:00,80.7,75.8,29.84,ESE,119,1.0,1.0,85,0.00,,,0.33,Wunderground v.1.15,2013-07-10 23:10:00,
2013-07-10 18:15:00,80.6,75.7,29.84,ESE,119,0.0,1.0,85,0.00,,,0.33,Wunderground v.1.15,2013-07-10 23:15:00,
2013-07-10 18:25:00,80.9,76.3,29.84,SSE,168,1.0,1.0,86,0.00,,,0.33,Wunderground v.1.15,2013-07-10 23:25:00,
2013-07-10 18:30:00,80.8,76.2,29.84,ESE,102,1.0,1.0,86,0.00,,,0.33,Wunderground v.1.15,2013-07-10 23:30:00,
2013-07-10 18:40:00,81.1,76.2,29.84,East,101,0.0,2.0,85,0.00,,,0.33,Wunderground v.1.15,2013-07-10 23:40:00,
2013-07-10 18:45:00,80.9,76.3,29.84,East,101,0.0,2.0,86,0.00,,,0.33,Wunderground v.1.15,2013-07-10 23:45:00,
2013-07-10 18:55:00,80.9,76.3,29.83,East,101,0.0,0.0,86,0.00,,,0.33,Wunderground v.1.15,2013-07-10 23:55:00,
2013-07-10 19:00:00,80.9,76.0,29.83,East,101,0.0,0.0,85,0.00,,,0.33,Wunderground v.1.15,2013-07-11 00:00:00,
2013-07-10 19:09:00,80.3,75.4,29.83,East,101,0.0,0.0,85,0.00,,,0.33,Wunderground v.1.15,2013-07-11 00:09:00,
2013-07-10 19:15:00,80.0,75.4,29.83,ESE,102,1.0,4.0,86,0.00,,,0.33,Wunderground v.1.15,2013-07-11 00:15:00,
2013-07-10 19:25:00,79.4,75.5,29.83,ESE,102,1.0,1.0,88,0.00,,,0.33,Wunderground v.1.15,2013-07-11 00:25:00,
2013-07-10 19:35:00,79.2,75.7,29.83,ESE,107,1.0,1.0,89,0.00,,,0.33,Wunderground v.1.15,2013-07-11 00:35:00,
2013-07-10 19:40:00,78.9,75.4,29.83,WSW,245,1.0,1.0,89,0.00,,,0.33,Wunderground v.1.15,2013-07-11 00:40:00,
2013-07-10 19:50:00,78.3,74.8,29.84,South,182,0.0,0.0,89,0.00,,,0.33,Wunderground v.1.15,2013-07-11 00:50:00,
2013-07-10 19:55:00,78.1,74.9,29.84,SSE,157,0.0,0.0,90,0.00,,,0.33,Wunderground v.1.15,2013-07-11 00:55:00,
2013-07-10 20:00:00,78.0,74.8,29.84,ESE,123,0.0,0.0,90,0.00,,,0.33,Wunderground v.1.15,2013-07-11 01:00:00,
2013-07-10 20:09:00,77.5,74.7,29.84,ESE,123,0.0,0.0,91,0.00,,,0.33,Wunderground v.1.15,2013-07-11 01:09:00,
2013-07-10 20:15:00,77.3,74.5,29.84,ESE,123,0.0,0.0,91,0.00,,,0.33,Wunderground v.1.15,2013-07-11 01:15:00,
2013-07-10 20:25:00,76.7,74.2,29.85,ESE,115,0.0,0.0,92,0.00,,,0.33,Wunderground v.1.15,2013-07-11 01:25:00,
2013-07-10 20:35:00,76.3,74.1,29.85,ESE,115,0.0,0.0,93,0.00,,,0.33,Wunderground v.1.15,2013-07-11 01:35:00,
2013-07-10 20:40:00,76.1,73.9,29.86,ESE,115,0.0,0.0,93,0.00,,,0.33,Wunderground v.1.15,2013-07-11 01:40:00,
2013-07-10 20:50:00,75.8,73.9,29.87,ESE,121,0.0,0.0,94,0.00,,,0.33,Wunderground v.1.15,2013-07-11 01:50:00,
2013-07-10 20:55:00,75.6,73.8,29.87,ESE,121,0.0,0.0,94,0.00,,,0.33,Wunderground v.1.15,2013-07-11 01:55:00,
2013-07-10 21:00:00,75.3,73.5,29.87,SE,128,1.0,1.0,94,0.00,,,0.33,Wunderground v.1.15,2013-07-11 02:00:00,
2013-07-10 21:10:00,75.0,73.2,29.87,SE,132,1.0,1.0,94,0.00,,,0.33,Wunderground v.1.15,2013-07-11 02:10:00,
2013-07-10 21:20:00,74.8,73.0,29.87,SSE,155,1.0,2.0,94,0.00,,,0.33,Wunderground v.1.15,2013-07-11 02:20:00,
2013-07-10 21:25:00,74.8,73.3,29.88,SSE,155,1.0,2.0,95,0.00,,,0.33,Wunderground v.1.15,2013-07-11 02:25:00,
2013-07-10 21:35:00,74.6,73.1,29.88,SSE,155,0.0,1.0,95,0.00,,,0.33,Wunderground v.1.15,2013-07-11 02:35:00,
2013-07-10 21:40:00,74.4,72.9,29.88,SSE,155,0.0,0.0,95,0.00,,,0.33,Wunderground v.1.15,2013-07-11 02:40:00,
2013-07-10 21:49:00,74.2,72.7,29.88,SSE,155,0.0,0.0,95,0.00,,,0.33,Wunderground v.1.15,2013-07-11 02:49:00,
2013-07-10 21:55:00,74.1,72.6,29.88,SSE,155,0.0,0.0,95,0.00,,,0.33,Wunderground v.1.15,2013-07-11 02:55:00,
2013-07-10 22:00:00,74.0,72.5,29.88,SSE,155,0.0,0.0,95,0.00,,,0.33,Wunderground v.1.15,2013-07-11 03:00:00,
2013-07-10 22:10:00,73.8,72.6,29.88,SSE,155,0.0,0.0,96,0.00,,,0.33,Wunderground v.1.15,2013-07-11 03:10:00,
2013-07-10 22:20:00,73.5,72.0,29.87,SSE,155,0.0,0.0,95,0.00,,,0.33,Wunderground v.1.15,2013-07-11 03:20:00,
2013-07-10 22:30:00,73.3,72.1,29.87,SSE,155,0.0,0.0,96,0.00,,,0.33,Wunderground v.1.15,2013-07-11 03:30:00,
2013-07-10 22:35:00,73.2,72.0,29.87,SSE,155,0.0,0.0,96,0.00,,,0.33,Wunderground v.1.15,2013-07-11 03:35:00,
2013-07-10 22:44:00,73.1,71.9,29.87,SSE,155,0.0,0.0,96,0.00,,,0.33,Wunderground v.1.15,2013-07-11 03:44:00,
2013-07-10 22:50:00,73.0,71.8,29.87,SSE,155,0.0,0.0,96,0.00,,,0.33,Wunderground v.1.15,2013-07-11 03:50:00,
2013-07-10 23:00:00,72.8,71.6,29.87,SSE,155,0.0,0.0,96,0.00,,,0.33,Wunderground v.1.15,2013-07-11 04:00:00,
2013-07-10 23:05:00,72.7,71.5,29.87,SSE,155,0.0,0.0,96,0.00,,,0.33,Wunderground v.1.15,2013-07-11 04:05:00,
2013-07-10 23:10:00,72.6,71.4,29.87,SSE,155,0.0,0.0,96,0.00,,,0.33,Wunderground v.1.15,2013-07-11 04:10:00,
2013-07-10 23:15:00,72.6,71.4,29.87,SSE,155,0.0,0.0,96,0.00,,,0.33,Wunderground v.1.15,2013-07-11 04:15:00,
2013-07-10 23:20:00,72.6,71.4,29.88,SSE,155,0.0,0.0,96,0.00,,,0.33,Wunderground v.1.15,2013-07-11 04:20:00,
2013-07-10 23:25:00,72.5,71.3,29.88,SSE,155,0.0,0.0,96,0.00,,,0.33,Wunderground v.1.15,2013-07-11 04:25:00,
2013-07-10 23:30:00,72.5,71.3,29.88,SSE,155,0.0,0.0,96,0.00,,,0.33,Wunderground v.1.15,2013-07-11 04:30:00,
2013-07-10 23:40:00,72.3,71.4,29.88,SSE,155,0.0,0.0,97,0.00,,,0.33,Wunderground v.1.15,2013-07-11 04:40:00,
2013-07-10 23:45:00,72.3,71.4,29.87,SSE,155,0.0,0.0,97,0.00,,,0.33,Wunderground v.1.15,2013-07-11 04:45:00,
2013-07-10 23:55:00,72.2,71.3,29.87,SSE,155,0.0,0.0,97,0.00,,,0.33,Wunderground v.1.15,2013-07-11 04:55:00,